< < Back
Terminal Aerodrome Forecast


Current Version              Previous Versions:   1  2  3  4  5  6  7  8  9  

Terminal Aerodrome Forecast

537
FTUS42 KFFC 241125
TAFPDK
TAF
KPDK 241125Z 2412/2512 00000KT P6SM SCT008 BKN030
      TEMPO 2412/2414 BKN007
     FM241400 14005KT P6SM VCSH SCT025 BKN050
     FM242000 14005KT P6SM SCT050 SCT100
     FM250100 VRB03KT P6SM FEW060 SCT150=

Latest METAR

513
SAUS70 KWBC 241600 RRF
MTRPDK
METAR KPDK 241553Z 23007KT 10SM BKN022 OVC034 27/22 A3028 RMK AO2 SLP235
T02720217


USA.gov is the U.S. government's official web portal to all federal, state and local government web resources and services.